createdAt,value
2023-02-17T00:01:11.527Z,4.97
2023-02-17T00:03:39.621Z,4.10
2023-02-17T00:06:08.861Z,4.20
2023-02-17T00:08:37.180Z,4.43
2023-02-17T00:11:05.790Z,4.20
2023-02-17T00:13:33.777Z,4.10
2023-02-17T00:16:08.083Z,4.60
2023-02-17T00:18:36.344Z,4.57
2023-02-17T00:21:13.241Z,3.80
2023-02-17T00:23:41.222Z,4.77
2023-02-17T00:26:09.347Z,4.20
2023-02-17T00:28:37.334Z,4.40
2023-02-17T00:31:11.198Z,4.00
2023-02-17T00:33:39.279Z,4.00
2023-02-17T00:36:09.257Z,4.10
2023-02-17T00:38:38.418Z,4.37
2023-02-17T00:41:06.691Z,4.13
2023-02-17T00:43:34.669Z,3.73
2023-02-17T00:46:04.463Z,4.13
2023-02-17T00:48:34.371Z,4.10
2023-02-17T00:51:02.503Z,4.27
2023-02-17T00:53:30.741Z,4.17
2023-02-17T00:55:58.756Z,4.03
2023-02-17T00:58:26.970Z,3.93
2023-02-17T01:00:56.657Z,3.90
2023-02-17T01:03:25.448Z,3.80
2023-02-17T01:05:55.662Z,3.77
2023-02-17T01:08:25.517Z,3.57
2023-02-17T01:10:54.339Z,3.70
2023-02-17T01:13:22.833Z,3.93
2023-02-17T01:15:53.238Z,3.90
2023-02-17T01:18:23.229Z,3.93
2023-02-17T01:20:52.341Z,4.17
2023-02-17T01:23:22.126Z,5.40
2023-02-17T01:25:50.789Z,5.23
2023-02-17T01:28:21.437Z,5.53
2023-02-17T01:30:49.907Z,4.10
2023-02-17T01:33:17.992Z,4.80
2023-02-17T01:35:46.564Z,4.27
2023-02-17T01:38:14.638Z,3.73
2023-02-17T01:40:48.873Z,4.03
2023-02-17T01:43:18.220Z,3.63
2023-02-17T01:45:52.527Z,3.60
2023-02-17T01:48:23.822Z,3.30
2023-02-17T01:50:55.084Z,3.37
2023-02-17T01:53:29.051Z,3.30
2023-02-17T01:55:58.681Z,3.23
2023-02-17T01:58:29.233Z,3.00
2023-02-17T02:01:00.520Z,3.10
2023-02-17T02:03:31.391Z,3.10
2023-02-17T02:06:01.322Z,3.50
2023-02-17T02:08:35.408Z,3.53
2023-02-17T02:11:04.791Z,3.10
2023-02-17T02:13:34.158Z,3.00
2023-02-17T02:16:12.215Z,2.90
2023-02-17T02:18:55.401Z,3.37
2023-02-17T02:21:58.173Z,3.57
2023-02-17T02:24:36.383Z,3.40
2023-02-17T02:27:49.395Z,3.40
2023-02-17T02:30:56.868Z,3.50
2023-02-17T02:33:33.622Z,3.23
2023-02-17T02:36:07.197Z,3.97
2023-02-17T02:38:42.084Z,3.47
2023-02-17T02:41:14.145Z,3.57
2023-02-17T02:43:43.640Z,3.70
2023-02-17T02:46:11.757Z,3.73
2023-02-17T02:48:42.115Z,3.40
2023-02-17T02:51:42.832Z,3.23
2023-02-17T02:54:28.889Z,3.37
2023-02-17T02:57:10.185Z,3.10
2023-02-17T02:59:47.254Z,3.27
2023-02-17T03:02:23.152Z,3.77
2023-02-17T03:04:59.484Z,3.83
2023-02-17T03:07:31.528Z,3.50
2023-02-17T03:10:01.732Z,3.20
2023-02-17T03:12:30.252Z,3.53
2023-02-17T03:15:03.363Z,3.83
2023-02-17T03:17:32.780Z,3.60
2023-02-17T03:20:03.995Z,3.53
2023-02-17T03:22:37.698Z,3.63
2023-02-17T03:25:06.277Z,3.50
2023-02-17T03:27:34.248Z,3.57
2023-02-17T03:30:02.285Z,3.27
2023-02-17T03:32:30.356Z,3.50
2023-02-17T03:34:58.296Z,3.30
2023-02-17T03:37:27.734Z,4.20
2023-02-17T03:39:55.765Z,3.17
2023-02-17T03:42:24.057Z,3.67
2023-02-17T03:44:52.051Z,3.27
2023-02-17T03:47:19.997Z,3.37
2023-02-17T03:49:47.953Z,3.50
2023-02-17T03:52:15.979Z,3.23
2023-02-17T03:54:45.489Z,4.00
2023-02-17T03:57:13.488Z,3.10
2023-02-17T03:59:41.514Z,3.23
2023-02-17T04:02:09.455Z,3.53
2023-02-17T04:04:37.775Z,3.00
2023-02-17T04:07:05.930Z,3.43
2023-02-17T04:09:33.914Z,3.43
2023-02-17T04:12:03.307Z,3.53
2023-02-17T04:14:31.329Z,3.53
2023-02-17T04:16:59.266Z,3.10
2023-02-17T04:19:27.312Z,3.23
2023-02-17T04:21:55.255Z,3.70
2023-02-17T04:24:23.219Z,3.13
2023-02-17T04:26:51.160Z,3.10
2023-02-17T04:29:20.521Z,3.30
2023-02-17T04:31:48.587Z,3.07
2023-02-17T04:34:16.644Z,3.23
2023-02-17T04:36:44.665Z,3.63
2023-02-17T04:39:12.703Z,3.27
2023-02-17T04:41:40.728Z,2.93
2023-02-17T04:44:08.709Z,3.30
2023-02-17T04:46:38.038Z,3.40
2023-02-17T04:49:06.011Z,3.10
2023-02-17T04:51:33.984Z,3.23
2023-02-17T04:54:01.986Z,3.60
2023-02-17T04:56:29.944Z,3.57
2023-02-17T04:58:57.987Z,3.00
2023-02-17T05:01:26.013Z,3.80
2023-02-17T05:03:55.376Z,3.60
2023-02-17T05:06:23.327Z,3.73
2023-02-17T05:08:51.436Z,2.87
2023-02-17T05:11:19.375Z,3.03
2023-02-17T05:13:47.325Z,3.10
2023-02-17T05:16:15.452Z,3.30
2023-02-17T05:18:43.444Z,3.17
2023-02-17T05:21:12.789Z,3.10
2023-02-17T05:23:41.421Z,3.00
2023-02-17T05:26:10.455Z,3.13
2023-02-17T05:28:39.186Z,3.00
2023-02-17T05:31:07.758Z,3.03
2023-02-17T05:33:36.045Z,2.93
2023-02-17T05:36:09.244Z,3.00
2023-02-17T05:38:39.964Z,3.37
2023-02-17T05:41:07.977Z,3.43
2023-02-17T05:43:35.954Z,2.70
2023-02-17T05:46:04.569Z,2.60
2023-02-17T05:48:33.129Z,2.90
2023-02-17T05:51:01.280Z,2.47
2023-02-17T05:53:29.349Z,2.80
2023-02-17T05:55:58.752Z,2.80
2023-02-17T05:58:27.341Z,2.57
2023-02-17T06:00:55.400Z,2.97
2023-02-17T06:03:23.368Z,2.70
2023-02-17T06:05:51.405Z,3.10
2023-02-17T06:08:19.417Z,2.53
2023-02-17T06:10:47.520Z,3.17
2023-02-17T06:13:16.840Z,3.00
2023-02-17T06:15:44.934Z,2.30
2023-02-17T06:18:12.913Z,2.80
2023-02-17T06:20:41.223Z,2.90
2023-02-17T06:23:09.203Z,3.43
2023-02-17T06:25:37.293Z,2.90
2023-02-17T06:28:05.603Z,2.93
2023-02-17T06:30:35.091Z,2.90
2023-02-17T06:33:03.105Z,3.60
2023-02-17T06:35:31.173Z,3.63
2023-02-17T06:37:59.238Z,3.60
2023-02-17T06:40:28.808Z,3.30
2023-02-17T06:42:56.888Z,2.87
2023-02-17T06:45:24.902Z,3.10
2023-02-17T06:47:54.358Z,2.77
2023-02-17T06:50:22.806Z,3.00
2023-02-17T06:52:50.884Z,2.67
2023-02-17T06:55:18.981Z,3.10
2023-02-17T06:57:46.969Z,2.10
2023-02-17T07:00:15.447Z,2.30
2023-02-17T07:02:43.467Z,2.53
2023-02-17T07:05:12.898Z,2.90
2023-02-17T07:07:40.993Z,2.57
2023-02-17T07:10:10.111Z,3.00
2023-02-17T07:12:38.133Z,2.87
2023-02-17T07:15:09.474Z,3.23
2023-02-17T07:17:39.790Z,2.90
2023-02-17T07:20:09.413Z,3.07
2023-02-17T07:22:38.754Z,2.50
2023-02-17T07:25:07.901Z,3.27
2023-02-17T07:27:37.020Z,3.00
2023-02-17T07:30:06.397Z,3.00
2023-02-17T07:32:35.615Z,2.90
2023-02-17T07:35:03.729Z,3.20
2023-02-17T07:37:31.706Z,2.73
2023-02-17T07:40:01.555Z,3.73
2023-02-17T07:42:29.709Z,4.30
2023-02-17T07:44:57.700Z,3.80
2023-02-17T07:47:25.662Z,3.67
2023-02-17T07:49:53.638Z,3.63
2023-02-17T07:52:21.587Z,4.47
2023-02-17T07:54:49.577Z,4.33
2023-02-17T07:57:18.918Z,4.67
2023-02-17T07:59:47.590Z,4.30
2023-02-17T08:02:15.547Z,4.37
2023-02-17T08:04:44.444Z,4.00
2023-02-17T08:07:12.378Z,3.83
2023-02-17T08:09:58.060Z,3.90
2023-02-17T08:12:44.810Z,4.00
2023-02-17T08:15:13.271Z,4.03
2023-02-17T08:17:41.293Z,4.80
2023-02-17T08:20:09.841Z,4.43
2023-02-17T08:22:37.886Z,4.43
2023-02-17T08:25:06.638Z,5.47
2023-02-17T08:27:35.987Z,5.50
2023-02-17T08:30:04.095Z,5.33
2023-02-17T08:32:32.083Z,5.23
2023-02-17T08:35:00.300Z,6.70
2023-02-17T08:37:28.394Z,6.17
2023-02-17T08:39:56.345Z,6.70
2023-02-17T08:42:24.356Z,6.27
2023-02-17T08:44:53.719Z,5.83
2023-02-17T08:47:21.654Z,6.23
2023-02-17T08:49:49.707Z,6.80
2023-02-17T08:52:17.806Z,7.20
2023-02-17T08:54:45.795Z,7.77
2023-02-17T08:57:13.796Z,6.73
2023-02-17T08:59:41.840Z,5.87
2023-02-17T09:02:12.051Z,6.53
2023-02-17T09:04:40.091Z,6.43
2023-02-17T09:07:12.198Z,6.13
2023-02-17T09:09:41.057Z,6.27
2023-02-17T09:12:09.483Z,6.73
2023-02-17T09:14:37.639Z,6.47
2023-02-17T09:17:06.512Z,7.80
2023-02-17T09:19:39.421Z,7.17
2023-02-17T09:22:07.587Z,7.72
2023-02-17T09:24:38.763Z,8.23
2023-02-17T09:27:07.088Z,6.03
2023-02-17T09:29:35.078Z,5.65
2023-02-17T09:32:03.213Z,4.95
2023-02-17T09:34:31.394Z,5.53
2023-02-17T09:37:00.735Z,5.10
2023-02-17T09:39:28.843Z,4.13
2023-02-17T09:41:57.918Z,3.80
2023-02-17T09:44:27.443Z,5.45
2023-02-17T09:47:02.686Z,3.97
2023-02-17T09:49:38.407Z,4.10
2023-02-17T09:52:15.584Z,4.17
2023-02-17T09:54:54.727Z,3.78
2023-02-17T09:57:28.466Z,4.90
2023-02-17T10:00:00.268Z,5.32
2023-02-17T10:02:34.546Z,5.67
2023-02-17T10:05:08.650Z,5.57
2023-02-17T10:07:42.954Z,5.75
2023-02-17T10:10:15.371Z,5.70
2023-02-17T10:12:48.331Z,5.53
2023-02-17T10:15:19.635Z,6.35
2023-02-17T10:17:56.302Z,5.80
2023-02-17T10:20:26.942Z,5.22
2023-02-17T10:23:02.774Z,5.27
2023-02-17T10:25:54.891Z,5.13
2023-02-17T10:28:35.051Z,5.30
2023-02-17T10:31:05.491Z,4.22
2023-02-17T10:33:37.732Z,3.88
2023-02-17T10:36:17.888Z,4.50
2023-02-17T10:38:51.937Z,4.37
2023-02-17T10:41:25.065Z,3.05
2023-02-17T10:43:54.112Z,2.92
2023-02-17T10:46:28.478Z,2.83
2023-02-17T10:48:58.649Z,3.00
2023-02-17T10:51:29.157Z,3.33
2023-02-17T10:54:02.376Z,3.22
2023-02-17T10:56:36.810Z,5.03
2023-02-17T10:59:09.212Z,4.20
2023-02-17T11:01:38.252Z,4.32
2023-02-17T11:04:08.150Z,4.07
2023-02-17T11:06:42.328Z,5.10
2023-02-17T11:09:21.800Z,3.95
2023-02-17T11:11:54.596Z,3.65
2023-02-17T11:14:28.020Z,4.00
2023-02-17T11:17:00.147Z,3.97
2023-02-17T11:19:30.745Z,3.67
2023-02-17T11:22:00.308Z,3.53
2023-02-17T11:24:31.836Z,3.85
2023-02-17T11:27:01.935Z,4.75
2023-02-17T11:29:31.642Z,4.75
2023-02-17T11:32:02.261Z,4.50
2023-02-17T11:34:33.212Z,5.30
2023-02-17T11:37:04.766Z,5.22
2023-02-17T11:39:39.701Z,4.82
2023-02-17T11:42:16.691Z,5.03
2023-02-17T11:44:44.810Z,5.03
2023-02-17T11:47:23.990Z,5.22
2023-02-17T11:50:04.658Z,6.03
2023-02-17T11:52:47.770Z,6.53
2023-02-17T11:55:23.753Z,6.15
2023-02-17T11:58:07.504Z,6.53
2023-02-17T12:00:46.792Z,6.05
2023-02-17T12:03:48.524Z,6.47
2023-02-17T12:06:23.548Z,6.43
2023-02-17T12:09:04.973Z,5.90
2023-02-17T12:11:45.069Z,5.63
2023-02-17T12:14:25.200Z,5.80
2023-02-17T12:17:02.399Z,6.47
2023-02-17T12:19:45.205Z,7.18
2023-02-17T12:22:19.491Z,6.07
2023-02-17T12:25:09.993Z,6.32
2023-02-17T12:27:51.119Z,6.82
2023-02-17T12:30:39.471Z,5.72
2023-02-17T12:33:22.963Z,5.80
2023-02-17T12:35:53.361Z,5.78
2023-02-17T12:38:26.723Z,5.88
2023-02-17T12:40:59.509Z,4.82
2023-02-17T12:43:33.602Z,5.55
2023-02-17T12:46:06.964Z,5.25
2023-02-17T12:48:39.200Z,4.82
2023-02-17T12:51:13.096Z,4.70
2023-02-17T12:53:46.759Z,5.03
2023-02-17T12:56:47.325Z,5.03
2023-02-17T12:59:21.273Z,4.85
2023-02-17T13:01:55.376Z,4.70
2023-02-17T13:04:26.344Z,4.95
2023-02-17T13:07:03.475Z,5.38
2023-02-17T13:09:37.195Z,4.60
2023-02-17T13:12:11.090Z,4.35
2023-02-17T13:14:45.950Z,4.68
2023-02-17T13:17:28.411Z,4.65
2023-02-17T13:20:24.773Z,5.05
2023-02-17T13:23:05.620Z,5.07
2023-02-17T13:25:37.616Z,4.65
2023-02-17T13:28:33.711Z,5.57
2023-02-17T13:31:13.407Z,5.00
2023-02-17T13:33:45.190Z,5.05
2023-02-17T13:36:16.687Z,4.80
2023-02-17T13:38:56.536Z,4.45
2023-02-17T13:41:24.556Z,5.03
2023-02-17T13:43:52.529Z,4.45
2023-02-17T13:46:25.337Z,4.05
2023-02-17T13:49:02.912Z,4.60
2023-02-17T13:51:33.395Z,4.05
2023-02-17T13:54:09.061Z,5.28
2023-02-17T13:56:37.152Z,4.75
2023-02-17T13:59:10.538Z,4.18
2023-02-17T14:01:43.194Z,3.78
2023-02-17T14:04:23.176Z,4.05
2023-02-17T14:06:52.609Z,3.72
2023-02-17T14:09:26.586Z,3.55
2023-02-17T14:11:55.996Z,3.83
2023-02-17T14:14:27.242Z,4.05
2023-02-17T14:17:02.516Z,4.03
2023-02-17T14:19:31.576Z,4.07
2023-02-17T14:22:03.094Z,4.00
2023-02-17T14:24:33.333Z,3.83
2023-02-17T14:27:05.722Z,3.63
2023-02-17T14:29:41.553Z,3.97
2023-02-17T14:32:29.176Z,3.42
2023-02-17T14:35:07.962Z,3.58
2023-02-17T14:37:37.088Z,3.22
2023-02-17T14:40:06.259Z,3.08
2023-02-17T14:42:34.276Z,3.65
2023-02-17T14:45:02.234Z,3.72
2023-02-17T14:47:31.590Z,3.60
2023-02-17T14:49:59.597Z,3.38
2023-02-17T14:52:27.581Z,3.45
2023-02-17T14:54:55.637Z,10.05
2023-02-17T14:57:28.573Z,6.70
2023-02-17T14:59:57.805Z,3.47
2023-02-17T15:02:25.891Z,3.30
2023-02-17T15:04:55.409Z,3.28
2023-02-17T15:07:24.040Z,3.50
2023-02-17T15:09:51.981Z,3.30
2023-02-17T15:12:21.813Z,3.10
2023-02-17T15:14:49.841Z,3.13
2023-02-17T15:17:17.950Z,3.30
2023-02-17T15:19:45.952Z,3.63
2023-02-17T15:22:15.923Z,4.25
2023-02-17T15:24:43.896Z,3.72
2023-02-17T15:27:15.080Z,3.65
2023-02-17T15:29:43.094Z,3.83
2023-02-17T15:32:18.950Z,3.38
2023-02-17T15:34:47.348Z,3.90
2023-02-17T15:37:16.672Z,3.83
2023-02-17T15:39:44.686Z,3.50
2023-02-17T15:42:15.401Z,4.25
2023-02-17T15:44:47.075Z,3.92
2023-02-17T15:47:18.353Z,4.55
2023-02-17T15:49:46.508Z,5.18
2023-02-17T15:52:16.793Z,4.53
2023-02-17T15:54:45.412Z,4.72
2023-02-17T15:57:22.112Z,4.47
2023-02-17T15:59:50.601Z,5.50
2023-02-17T16:02:22.534Z,4.47
2023-02-17T16:04:51.018Z,4.85
2023-02-17T16:07:20.341Z,4.63
2023-02-17T16:09:48.445Z,4.13
2023-02-17T16:12:26.437Z,4.45
2023-02-17T16:14:55.033Z,3.38
2023-02-17T16:17:23.305Z,3.58
2023-02-17T16:19:51.340Z,3.45
2023-02-17T16:22:20.678Z,3.38
2023-02-17T16:24:48.644Z,4.00
2023-02-17T16:27:17.966Z,3.05
2023-02-17T16:29:45.954Z,3.58
2023-02-17T16:32:14.591Z,3.22
2023-02-17T16:34:42.885Z,3.08
2023-02-17T16:37:16.064Z,3.13
2023-02-17T16:39:46.188Z,3.58
2023-02-17T16:42:15.738Z,3.08
2023-02-17T16:44:44.262Z,3.70
2023-02-17T16:47:20.789Z,2.95
2023-02-17T16:49:50.378Z,3.58
2023-02-17T16:52:25.168Z,3.42
2023-02-17T16:54:55.473Z,2.63
2023-02-17T16:57:23.869Z,3.05
2023-02-17T16:59:51.982Z,2.55
2023-02-17T17:02:21.634Z,2.95
2023-02-17T17:04:49.831Z,3.03
2023-02-17T17:07:18.146Z,2.70
2023-02-17T17:10:06.934Z,2.90
2023-02-17T17:12:36.093Z,2.45
2023-02-17T17:15:05.068Z,3.08
2023-02-17T17:17:38.831Z,3.13
2023-02-17T17:20:08.760Z,3.10
2023-02-17T17:22:36.781Z,2.42
2023-02-17T17:25:04.866Z,2.80
2023-02-17T17:27:32.846Z,2.28
2023-02-17T17:30:02.227Z,2.97
2023-02-17T17:32:30.260Z,3.60
2023-02-17T17:34:58.267Z,3.20
2023-02-17T17:37:26.213Z,2.75
2023-02-17T17:39:54.152Z,3.20
2023-02-17T17:42:22.137Z,3.25
2023-02-17T17:44:50.086Z,3.10
2023-02-17T17:47:29.454Z,2.88
2023-02-17T17:49:58.413Z,2.85
2023-02-17T17:52:26.911Z,3.40
2023-02-17T17:54:54.860Z,3.65
2023-02-17T17:57:23.292Z,4.30
2023-02-17T17:59:51.262Z,4.13
2023-02-17T18:02:20.596Z,3.72
2023-02-17T18:04:48.807Z,3.75
2023-02-17T18:07:18.071Z,4.45
2023-02-17T18:09:46.214Z,3.63
2023-02-17T18:12:18.858Z,4.00
2023-02-17T18:14:50.350Z,4.00
2023-02-17T18:17:20.588Z,3.33
2023-02-17T18:19:54.513Z,3.20
2023-02-17T18:22:22.705Z,3.20
2023-02-17T18:24:50.901Z,3.10
2023-02-17T18:27:18.904Z,3.67
2023-02-17T18:29:47.008Z,3.70
2023-02-17T18:32:15.026Z,4.40
2023-02-17T18:34:43.004Z,3.92
2023-02-17T18:37:12.390Z,3.30
2023-02-17T18:39:40.736Z,2.85
2023-02-17T18:42:10.204Z,3.30
2023-02-17T18:44:38.216Z,3.45
2023-02-17T18:47:06.233Z,3.80
2023-02-17T18:49:34.187Z,3.58
2023-02-17T18:52:02.185Z,3.65
2023-02-17T18:54:31.597Z,3.95
2023-02-17T18:56:59.602Z,3.80
2023-02-17T18:59:27.543Z,3.90
2023-02-17T19:01:55.557Z,3.78
2023-02-17T19:04:23.488Z,4.55
2023-02-17T19:06:51.479Z,5.80
2023-02-17T19:09:19.436Z,6.40
2023-02-17T19:11:48.772Z,5.78
2023-02-17T19:14:16.746Z,5.78
2023-02-17T19:16:44.824Z,5.47
2023-02-17T19:19:12.828Z,5.32
2023-02-17T19:21:40.807Z,4.43
2023-02-17T19:24:09.539Z,4.40
2023-02-17T19:26:38.108Z,4.80
2023-02-17T19:29:07.459Z,4.68
2023-02-17T19:31:35.556Z,4.78
2023-02-17T19:34:03.553Z,4.03
2023-02-17T19:36:31.549Z,5.68
2023-02-17T19:38:59.558Z,5.38
2023-02-17T19:41:27.565Z,4.65
2023-02-17T19:43:55.535Z,4.72
2023-02-17T19:46:25.780Z,4.40
2023-02-17T19:48:53.843Z,4.22
2023-02-17T19:51:22.228Z,4.35
2023-02-17T19:53:50.213Z,4.47
2023-02-17T19:56:20.329Z,5.25
2023-02-17T19:58:49.062Z,4.35
2023-02-17T20:01:19.495Z,4.47
2023-02-17T20:03:49.282Z,4.45
2023-02-17T20:06:21.121Z,4.55
2023-02-17T20:08:53.076Z,4.60
2023-02-17T20:11:21.294Z,4.78
2023-02-17T20:13:49.460Z,3.67
2023-02-17T20:16:18.642Z,4.38
2023-02-17T20:18:49.591Z,5.25
2023-02-17T20:21:20.105Z,4.53
2023-02-17T20:23:48.211Z,4.20
2023-02-17T20:26:18.637Z,4.93
2023-02-17T20:28:47.551Z,4.45
2023-02-17T20:31:16.092Z,4.88
2023-02-17T20:33:44.484Z,4.35
2023-02-17T20:36:13.880Z,4.18
2023-02-17T20:38:42.725Z,3.90
2023-02-17T20:41:16.836Z,4.00
2023-02-17T20:43:45.205Z,5.00
2023-02-17T20:46:15.220Z,4.38
2023-02-17T20:48:43.299Z,3.78
2023-02-17T20:51:11.306Z,4.65
2023-02-17T20:53:40.849Z,4.30
2023-02-17T20:56:13.455Z,4.03
2023-02-17T20:58:41.539Z,3.97
2023-02-17T21:01:09.933Z,4.32
2023-02-17T21:03:38.121Z,4.63
2023-02-17T21:06:15.664Z,4.82
2023-02-17T21:08:45.696Z,4.35
2023-02-17T21:11:13.803Z,4.00
2023-02-17T21:13:41.772Z,3.00
2023-02-17T21:16:13.065Z,3.85
2023-02-17T21:18:41.090Z,2.70
2023-02-17T21:21:09.420Z,3.80
2023-02-17T21:23:37.464Z,3.42
2023-02-17T21:26:09.833Z,3.50
2023-02-17T21:28:38.326Z,2.50
2023-02-17T21:31:06.881Z,2.60
2023-02-17T21:33:35.630Z,3.17
2023-02-17T21:36:07.122Z,3.35
2023-02-17T21:38:35.227Z,3.80
2023-02-17T21:41:06.874Z,3.75
2023-02-17T21:43:53.597Z,3.70
2023-02-17T21:46:22.076Z,3.92
2023-02-17T21:48:51.137Z,4.10
2023-02-17T21:51:20.642Z,3.55
2023-02-17T21:53:48.591Z,4.47
2023-02-17T21:56:16.993Z,3.63
2023-02-17T21:58:48.112Z,3.85
2023-02-17T22:01:16.607Z,3.63
2023-02-17T22:03:44.728Z,3.67
2023-02-17T22:06:17.432Z,3.80
2023-02-17T22:08:46.372Z,3.95
2023-02-17T22:11:16.025Z,5.15
2023-02-17T22:13:44.306Z,3.50
2023-02-17T22:16:14.355Z,3.22
2023-02-17T22:18:42.513Z,3.63
2023-02-17T22:21:11.698Z,4.38
2023-02-17T22:23:40.662Z,5.03
2023-02-17T22:26:11.178Z,4.75
2023-02-17T22:28:39.540Z,4.13
2023-02-17T22:31:07.669Z,4.68
2023-02-17T22:33:37.035Z,4.97
2023-02-17T22:36:07.917Z,4.75
2023-02-17T22:38:36.578Z,4.57
2023-02-17T22:41:07.277Z,4.90
2023-02-17T22:43:36.966Z,4.70
2023-02-17T22:46:06.300Z,4.80
2023-02-17T22:48:37.468Z,4.82
2023-02-17T22:51:06.701Z,5.20
2023-02-17T22:53:35.873Z,6.00
2023-02-17T22:56:04.652Z,5.55
2023-02-17T22:58:33.432Z,4.65
2023-02-17T23:01:06.420Z,4.90
2023-02-17T23:03:36.649Z,4.50
2023-02-17T23:06:07.054Z,4.60
2023-02-17T23:08:35.668Z,4.25
2023-02-17T23:11:05.545Z,4.63
2023-02-17T23:13:33.684Z,4.80
2023-02-17T23:16:02.121Z,4.90
2023-02-17T23:18:31.766Z,4.68
2023-02-17T23:21:07.372Z,4.28
2023-02-17T23:23:35.610Z,4.78
2023-02-17T23:26:03.675Z,4.65
2023-02-17T23:28:31.879Z,4.45
2023-02-17T23:30:59.993Z,4.60
2023-02-17T23:33:28.101Z,5.55
2023-02-17T23:35:56.091Z,4.78
2023-02-17T23:38:25.456Z,4.70
2023-02-17T23:40:54.048Z,4.55
2023-02-17T23:43:22.438Z,5.03
2023-02-17T23:45:50.427Z,4.85
2023-02-17T23:48:18.413Z,4.90
2023-02-17T23:50:46.384Z,5.07
2023-02-17T23:53:15.742Z,5.18
2023-02-17T23:55:45.039Z,4.90
2023-02-17T23:58:12.971Z,4.97
